Time;durP1;ratioP1;P1;durP2;ratioP2;P2;SDS_P1;SDS_P2;PMS_P1;PMS_P2;Temp;Humidity;BMP_temperature;BMP_pressure;BME280_temperature;BME280_humidity;BME280_pressure;Samples;Min_cycle;Max_cycle;Signal;HPM_P1;HPM_P2
2023/10/29 00:00:28;;;;;;;9.73;3.05;;;;;;;-145.87;100.00;54973.53;2091263;28;20401;-58
2023/10/29 00:01:29;;;;;;;9.05;3.35;;;;;;;-145.87;100.00;54973.53;2091003;28;20052;-58
2023/10/29 00:02:31;;;;;;;6.25;2.47;;;;;;;-145.87;100.00;54973.53;2091182;28;20041;-58
2023/10/29 00:03:32;;;;;;;5.10;2.35;;;;;;;-145.87;100.00;54973.53;2091583;28;20049;-58
2023/10/29 00:04:35;;;;;;;5.13;2.67;;;;;;;-145.87;100.00;54973.53;2091271;28;20060;-57
2023/10/29 00:05:36;;;;;;;4.43;2.75;;;;;;;-145.87;100.00;54973.53;2090501;28;20578;-58
2023/10/29 00:06:37;;;;;;;4.63;2.50;;;;;;;-145.87;100.00;54973.53;2090753;28;20044;-58
2023/10/29 00:07:39;;;;;;;5.35;2.83;;;;;;;-145.87;100.00;54973.53;2091203;28;20045;-58
2023/10/29 00:08:40;;;;;;;5.20;2.42;;;;;;;-145.87;100.00;54973.53;2091230;28;20056;-58
2023/10/29 00:09:41;;;;;;;4.75;2.22;;;;;;;-145.87;100.00;54973.53;2091662;28;20481;-58
2023/10/29 00:10:42;;;;;;;5.45;2.20;;;;;;;-145.87;100.00;54973.53;2091397;28;20057;-58
2023/10/29 00:11:43;;;;;;;5.68;2.40;;;;;;;-145.87;100.00;54973.53;2091289;28;20514;-58
2023/10/29 00:12:44;;;;;;;6.95;2.97;;;;;;;-145.87;100.00;54973.53;2091180;28;20053;-58
2023/10/29 00:13:45;;;;;;;7.93;2.50;;;;;;;-145.87;100.00;54973.53;2091282;28;20053;-58
2023/10/29 00:14:47;;;;;;;3.90;2.13;;;;;;;-145.87;100.00;54973.53;2091544;28;20049;-58
2023/10/29 00:15:48;;;;;;;7.97;2.40;;;;;;;-145.87;100.00;54973.53;2090498;28;20057;-58
2023/10/29 00:16:49;;;;;;;5.90;2.42;;;;;;;-145.87;100.00;54973.53;2091440;28;20059;-58
2023/10/29 00:17:50;;;;;;;3.88;2.13;;;;;;;-145.87;100.00;54973.53;2091250;28;20045;-58
2023/10/29 00:18:51;;;;;;;6.82;2.63;;;;;;;-145.87;100.00;54973.53;2091252;28;20397;-58
2023/10/29 00:19:53;;;;;;;8.52;2.70;;;;;;;-145.87;100.00;54973.53;2090767;28;20053;-60
2023/10/29 00:20:54;;;;;;;7.40;2.40;;;;;;;-145.87;100.00;54973.53;2090202;28;20417;-59
2023/10/29 00:21:55;;;;;;;6.88;2.40;;;;;;;-145.87;100.00;54973.53;2090483;28;20053;-58
2023/10/29 00:22:56;;;;;;;5.70;2.25;;;;;;;-145.87;100.00;54973.53;2090716;28;20064;-58
2023/10/29 00:23:57;;;;;;;7.50;2.38;;;;;;;-145.87;100.00;54973.53;2091321;28;20048;-58
2023/10/29 00:24:58;;;;;;;5.20;2.22;;;;;;;-145.87;100.00;54973.53;2091019;28;20511;-58
2023/10/29 00:25:59;;;;;;;9.40;2.75;;;;;;;-145.87;100.00;54973.53;2091127;28;20045;-58
2023/10/29 00:27:01;;;;;;;5.70;2.78;;;;;;;-145.87;100.00;54973.53;2091428;28;20056;-58
2023/10/29 00:28:02;;;;;;;4.65;2.30;;;;;;;-145.87;100.00;54973.53;2091101;28;20049;-58
2023/10/29 00:29:03;;;;;;;5.72;2.50;;;;;;;-145.87;100.00;54973.53;2091004;28;20061;-58
2023/10/29 00:30:05;;;;;;;8.98;2.67;;;;;;;-145.87;100.00;54973.53;2091294;28;20056;-58
2023/10/29 00:31:06;;;;;;;7.07;2.65;;;;;;;-145.87;100.00;54973.53;2091097;28;20477;-58
2023/10/29 00:32:08;;;;;;;8.43;2.60;;;;;;;-145.87;100.00;54973.53;2091089;28;20049;-58
2023/10/29 00:33:09;;;;;;;6.95;2.88;;;;;;;-145.87;100.00;54973.53;2090073;28;20436;-58
2023/10/29 00:34:10;;;;;;;6.43;2.50;;;;;;;-145.87;100.00;54973.53;2082568;28;20053;-61
2023/10/29 00:35:11;;;;;;;6.32;2.28;;;;;;;-145.87;100.00;54973.53;2090464;28;20485;-58
2023/10/29 00:36:13;;;;;;;5.22;2.50;;;;;;;-145.87;100.00;54973.53;2090246;28;20476;-58
2023/10/29 00:37:14;;;;;;;4.43;2.72;;;;;;;-145.87;100.00;54973.53;2090432;28;20500;-59
2023/10/29 00:38:15;;;;;;;4.60;2.30;;;;;;;-145.87;100.00;54973.53;2090326;28;20531;-58
2023/10/29 00:39:17;;;;;;;5.75;2.80;;;;;;;-145.87;100.00;54973.53;2090997;28;20057;-58
2023/10/29 00:40:18;;;;;;;8.75;2.60;;;;;;;-145.87;100.00;54973.53;2090882;28;20535;-59
2023/10/29 00:41:19;;;;;;;6.03;2.30;;;;;;;-145.87;100.00;54973.53;2090505;28;20041;-58
2023/10/29 00:42:21;;;;;;;8.65;2.60;;;;;;;-145.87;100.00;54973.53;2090638;28;20064;-59
2023/10/29 00:43:23;;;;;;;6.53;2.60;;;;;;;-145.87;100.00;54973.53;2090248;28;20056;-58
2023/10/29 00:44:25;;;;;;;5.53;2.35;;;;;;;-145.87;100.00;54973.53;2089859;28;20061;-58
2023/10/29 00:45:26;;;;;;;6.10;2.70;;;;;;;-145.87;100.00;54973.53;2090199;28;20056;-59
2023/10/29 00:46:27;;;;;;;5.35;2.17;;;;;;;-145.87;100.00;54973.53;2098671;28;20086;-58
2023/10/29 00:47:28;;;;;;;10.20;2.35;;;;;;;-145.87;100.00;54973.53;2090232;28;20428;-58
2023/10/29 00:48:29;;;;;;;5.95;2.22;;;;;;;-145.87;100.00;54973.53;2090155;28;20056;-58
2023/10/29 00:49:30;;;;;;;4.97;2.40;;;;;;;-145.87;100.00;54973.53;2089622;28;20059;-58
2023/10/29 00:50:31;;;;;;;6.00;2.53;;;;;;;-145.87;100.00;54973.53;2090281;28;20048;-61
2023/10/29 00:51:32;;;;;;;3.83;2.33;;;;;;;-145.87;100.00;54973.53;2081587;28;20413;-59
2023/10/29 00:52:35;;;;;;;4.68;2.33;;;;;;;-145.87;100.00;54973.53;2081543;28;20045;-58
2023/10/29 00:53:37;;;;;;;6.78;2.53;;;;;;;-145.87;100.00;54973.53;2089977;28;20040;-58
2023/10/29 00:54:38;;;;;;;6.45;2.50;;;;;;;-145.87;100.00;54973.53;2089785;28;20053;-58
2023/10/29 00:55:39;;;;;;;8.13;2.35;;;;;;;-145.87;100.00;54973.53;2073605;28;20525;-58
2023/10/29 00:56:41;;;;;;;6.30;2.78;;;;;;;-145.87;100.00;54973.53;2073561;28;20049;-58
2023/10/29 00:57:42;;;;;;;4.65;2.47;;;;;;;-145.87;100.00;54973.53;2073620;28;20048;-58
2023/10/29 00:58:43;;;;;;;6.45;2.47;;;;;;;-145.87;100.00;54973.53;2074302;28;20506;-58
2023/10/29 00:59:44;;;;;;;5.90;2.50;;;;;;;-145.87;100.00;54973.53;2073620;28;20048;-59
2023/10/29 01:00:45;;;;;;;3.72;2.13;;;;;;;-145.87;100.00;54973.53;2073755;28;20045;-59
2023/10/29 01:01:47;;;;;;;4.65;2.70;;;;;;;-145.87;100.00;54973.53;2081832;28;20037;-59
2023/10/29 01:02:49;;;;;;;5.03;2.35;;;;;;;-145.87;100.00;54973.53;2090339;28;20417;-58
2023/10/29 01:03:51;;;;;;;6.03;2.55;;;;;;;-145.87;100.00;54973.53;2090150;28;20048;-59
2023/10/29 01:04:52;;;;;;;6.70;2.80;;;;;;;-145.87;100.00;54973.53;2097737;28;20049;-64
2023/10/29 01:05:53;;;;;;;6.03;2.63;;;;;;;-145.87;100.00;54973.53;2090212;28;20067;-59
2023/10/29 01:06:54;;;;;;;7.35;2.63;;;;;;;-145.87;100.00;54973.53;2081637;28;20501;-59
2023/10/29 01:07:55;;;;;;;6.93;2.85;;;;;;;-145.87;100.00;54973.53;2083422;28;20060;-57
2023/10/29 01:08:56;;;;;;;4.93;2.90;;;;;;;-145.87;100.00;54973.53;2091924;28;20045;-58
2023/10/29 01:10:00;;;;;;;6.20;2.60;;;;;;;-145.87;100.00;54973.53;2091615;28;20051;-59
2023/10/29 01:11:02;;;;;;;7.22;2.53;;;;;;;-145.87;100.00;54973.53;2091114;28;20069;-58
2023/10/29 01:12:04;;;;;;;4.85;2.70;;;;;;;-145.87;100.00;54973.53;2092115;28;20378;-58
2023/10/29 01:13:05;;;;;;;7.05;2.70;;;;;;;-145.87;100.00;54973.53;2090488;28;20044;-59
2023/10/29 01:14:06;;;;;;;6.88;2.65;;;;;;;-145.87;100.00;54973.53;2090133;28;20041;-58
2023/10/29 01:15:08;;;;;;;6.85;2.85;;;;;;;-145.87;100.00;54973.53;2090834;28;20053;-58
2023/10/29 01:16:10;;;;;;;6.50;2.92;;;;;;;-145.87;100.00;54973.53;2090306;28;20501;-59
2023/10/29 01:17:11;;;;;;;6.88;2.97;;;;;;;-145.87;100.00;54973.53;2090277;28;20053;-58
2023/10/29 01:18:12;;;;;;;9.10;3.13;;;;;;;-145.87;100.00;54973.53;2090658;28;20061;-58
2023/10/29 01:19:14;;;;;;;6.80;2.88;;;;;;;-145.87;100.00;54973.53;2089160;28;20049;-58
2023/10/29 01:20:15;;;;;;;7.43;3.00;;;;;;;-145.87;100.00;54973.53;2090162;28;20405;-58
2023/10/29 01:21:16;;;;;;;6.78;3.65;;;;;;;-145.87;100.00;54973.53;2090649;28;20045;-58
2023/10/29 01:22:17;;;;;;;6.38;2.83;;;;;;;-145.87;100.00;54973.53;2090833;28;20045;-58
2023/10/29 01:23:19;;;;;;;5.35;2.47;;;;;;;-145.87;100.00;54973.53;2090452;28;20053;-58
2023/10/29 01:24:20;;;;;;;6.15;3.10;;;;;;;-145.87;100.00;54973.53;2089993;28;20048;-58
2023/10/29 01:25:22;;;;;;;6.60;3.25;;;;;;;-145.87;100.00;54973.53;2082063;28;20064;-58
2023/10/29 01:26:24;;;;;;;6.20;2.75;;;;;;;-145.87;100.00;54973.53;2089678;28;20053;-58
2023/10/29 01:27:26;;;;;;;5.65;2.78;;;;;;;-145.87;100.00;54973.53;2090037;28;20120;-58
2023/10/29 01:28:27;;;;;;;8.90;3.10;;;;;;;-145.87;100.00;54973.53;2090091;28;20049;-58
2023/10/29 01:29:29;;;;;;;8.45;2.78;;;;;;;-145.87;100.00;54973.53;2090116;28;20064;-58
2023/10/29 01:30:30;;;;;;;7.47;3.47;;;;;;;-145.87;100.00;54973.53;2081929;28;20048;-59
2023/10/29 01:31:31;;;;;;;7.72;2.90;;;;;;;-145.87;100.00;54973.53;2081803;28;20052;-58
2023/10/29 01:32:32;;;;;;;6.97;2.90;;;;;;;-145.87;100.00;54973.53;2089541;28;20049;-58
2023/10/29 01:33:33;;;;;;;6.75;3.13;;;;;;;-145.87;100.00;54973.53;2089598;28;20049;-58
2023/10/29 01:34:34;;;;;;;7.60;2.80;;;;;;;-145.87;100.00;54973.53;2082498;28;20414;-58
2023/10/29 01:35:37;;;;;;;11.65;2.83;;;;;;;-145.87;100.00;54973.53;2089907;28;20524;-58
2023/10/29 01:36:38;;;;;;;7.80;2.80;;;;;;;-145.87;100.00;54973.53;2081878;28;20045;-58
2023/10/29 01:37:39;;;;;;;6.40;2.60;;;;;;;-145.87;100.00;54973.53;2089851;28;20048;-58
2023/10/29 01:38:40;;;;;;;6.63;2.55;;;;;;;-145.87;100.00;54973.53;2090146;28;20053;-58
2023/10/29 01:39:41;;;;;;;4.85;2.90;;;;;;;-145.87;100.00;54973.53;2090145;28;20045;-58
2023/10/29 01:40:43;;;;;;;5.72;3.17;;;;;;;-145.87;100.00;54973.53;2090426;28;20052;-58
2023/10/29 01:41:44;;;;;;;8.02;3.28;;;;;;;-145.87;100.00;54973.53;2090657;28;20041;-58
2023/10/29 01:42:46;;;;;;;8.38;3.60;;;;;;;-145.87;100.00;54973.53;2090497;28;20052;-59
2023/10/29 01:43:47;;;;;;;7.50;3.33;;;;;;;-145.87;100.00;54973.53;2090490;28;20043;-58
2023/10/29 01:44:48;;;;;;;6.50;2.80;;;;;;;-145.87;100.00;54973.53;2090612;28;20044;-58
2023/10/29 01:45:50;;;;;;;7.72;3.13;;;;;;;-145.87;100.00;54973.53;2089494;28;20503;-58
2023/10/29 01:46:51;;;;;;;7.40;3.17;;;;;;;-145.87;100.00;54973.53;2089281;28;20048;-58
2023/10/29 01:47:52;;;;;;;6.97;3.10;;;;;;;-145.87;100.00;54973.53;2097736;28;20060;-58
2023/10/29 01:48:53;;;;;;;9.20;3.13;;;;;;;-145.87;100.00;54973.53;2090545;28;20056;-58
2023/10/29 01:49:54;;;;;;;6.97;3.17;;;;;;;-145.87;100.00;54973.53;2090343;28;20045;-58
2023/10/29 01:50:56;;;;;;;6.43;3.08;;;;;;;-145.87;100.00;54973.53;2090410;28;20039;-58
2023/10/29 01:51:57;;;;;;;6.18;2.90;;;;;;;-145.87;100.00;54973.53;2090366;28;20056;-58
2023/10/29 01:52:58;;;;;;;5.30;2.70;;;;;;;-145.87;100.00;54973.53;2090221;28;20068;-58
2023/10/29 01:53:59;;;;;;;6.35;2.75;;;;;;;-145.87;100.00;54973.53;2089215;28;20064;-58
2023/10/29 01:55:00;;;;;;;7.15;2.28;;;;;;;-145.87;100.00;54973.53;2089646;28;20040;-58
2023/10/29 01:56:07;;;;;;;7.88;2.78;;;;;;;-145.87;100.00;54973.53;2090300;28;20056;-58
2023/10/29 01:57:08;;;;;;;5.25;2.47;;;;;;;-145.87;100.00;54973.53;2081454;28;20124;-58
2023/10/29 01:58:09;;;;;;;6.22;2.10;;;;;;;-145.87;100.00;54973.53;2073011;28;20061;-58
2023/10/29 01:59:13;;;;;;;3.55;2.28;;;;;;;-145.87;100.00;54973.53;2081554;28;20505;-58
2023/10/29 02:00:15;;;;;;;5.47;2.00;;;;;;;-145.87;100.00;54973.53;2081551;28;20052;-58
2023/10/29 02:01:16;;;;;;;6.97;2.22;;;;;;;-145.87;100.00;54973.53;2081539;28;20425;-58
2023/10/29 02:02:17;;;;;;;4.35;2.35;;;;;;;-145.87;100.00;54973.53;2089429;28;20053;-58
2023/10/29 02:03:18;;;;;;;7.50;2.50;;;;;;;-145.87;100.00;54973.53;2090222;28;20053;-58
2023/10/29 02:04:26;;;;;;;4.07;2.00;;;;;;;-145.87;100.00;54973.53;2090002;28;20060;-58
2023/10/29 02:05:27;;;;;;;5.70;2.05;;;;;;;-145.87;100.00;54973.53;2090513;28;20065;-58
2023/10/29 02:06:29;;;;;;;3.92;2.30;;;;;;;-145.87;100.00;54973.53;2090314;28;20064;-58
2023/10/29 02:07:30;;;;;;;3.50;2.03;;;;;;;-145.87;100.00;54973.53;2089633;28;20057;-58
2023/10/29 02:08:31;;;;;;;6.15;2.05;;;;;;;-145.87;100.00;54973.53;2089776;28;20041;-58
2023/10/29 02:09:33;;;;;;;4.57;2.60;;;;;;;-145.87;100.00;54973.53;2089499;28;20049;-58
2023/10/29 02:10:35;;;;;;;6.72;2.42;;;;;;;-145.87;100.00;54973.53;2089463;28;20055;-59
2023/10/29 02:11:37;;;;;;;8.50;2.45;;;;;;;-145.87;100.00;54973.53;2089569;28;20478;-61
2023/10/29 02:12:38;;;;;;;4.40;2.47;;;;;;;-145.87;100.00;54973.53;2089434;28;20041;-58
2023/10/29 02:13:39;;;;;;;6.65;2.78;;;;;;;-145.87;100.00;54973.53;2081527;28;20048;-59
2023/10/29 02:14:41;;;;;;;7.78;2.33;;;;;;;-145.87;100.00;54973.53;2081611;28;20045;-58
2023/10/29 02:15:42;;;;;;;4.68;2.40;;;;;;;-145.87;100.00;54973.53;2089978;28;20401;-58
2023/10/29 02:16:43;;;;;;;5.90;2.35;;;;;;;-145.87;100.00;54973.53;2090133;28;20421;-58
2023/10/29 02:17:44;;;;;;;3.53;2.00;;;;;;;-145.87;100.00;54973.53;2090386;28;20041;-58
2023/10/29 02:18:48;;;;;;;5.55;2.65;;;;;;;-145.87;100.00;54973.53;2089296;28;20051;-58
2023/10/29 02:19:49;;;;;;;3.88;2.13;;;;;;;-145.87;100.00;54973.53;2081550;28;20046;-58
2023/10/29 02:20:50;;;;;;;4.57;2.50;;;;;;;-145.87;100.00;54973.53;2089308;28;20053;-58
2023/10/29 02:21:54;;;;;;;6.90;2.63;;;;;;;-145.87;100.00;54973.53;2090101;28;20405;-58
2023/10/29 02:22:55;;;;;;;7.03;2.45;;;;;;;-145.87;100.00;54973.53;2088907;28;20519;-58
2023/10/29 02:24:00;;;;;;;4.05;1.95;;;;;;;-145.87;100.00;54973.53;2089331;28;20052;-58
2023/10/29 02:25:02;;;;;;;4.90;2.45;;;;;;;-145.87;100.00;54973.53;2089885;28;20059;-58
2023/10/29 02:26:03;;;;;;;6.50;2.22;;;;;;;-145.87;100.00;54973.53;2089576;28;20045;-58
2023/10/29 02:27:05;;;;;;;5.95;2.15;;;;;;;-145.87;100.00;54973.53;2090070;28;20052;-58
2023/10/29 02:28:07;;;;;;;6.18;1.95;;;;;;;-145.87;100.00;54973.53;2089134;28;20053;-58
2023/10/29 02:29:08;;;;;;;5.68;2.33;;;;;;;-145.87;100.00;54973.53;2088983;28;20055;-58
2023/10/29 02:30:10;;;;;;;6.15;2.45;;;;;;;-145.87;100.00;54973.53;2090119;28;20080;-58
2023/10/29 02:31:20;;;;;;;5.32;2.30;;;;;;;-145.87;100.00;54973.53;2090560;28;20060;-59
2023/10/29 02:32:22;;;;;;;6.93;2.17;;;;;;;-145.87;100.00;54973.53;2089276;28;20045;-58
2023/10/29 02:33:23;;;;;;;4.38;1.83;;;;;;;-145.87;100.00;54973.53;2089900;28;20052;-58
2023/10/29 02:34:24;;;;;;;7.95;2.15;;;;;;;-145.87;100.00;54973.53;2090206;28;20052;-58
2023/10/29 02:35:25;;;;;;;3.83;2.00;;;;;;;-145.87;100.00;54973.53;2090200;28;20048;-58
2023/10/29 02:36:26;;;;;;;4.18;2.15;;;;;;;-145.87;100.00;54973.53;2090329;28;20488;-58
2023/10/29 02:37:29;;;;;;;4.47;2.17;;;;;;;-145.87;100.00;54973.53;2090069;28;20057;-58
2023/10/29 02:38:30;;;;;;;5.78;2.17;;;;;;;-145.87;100.00;54973.53;2090108;28;20041;-58
2023/10/29 02:39:31;;;;;;;6.55;2.28;;;;;;;-145.87;100.00;54973.53;2090262;28;20394;-58
2023/10/29 02:40:32;;;;;;;3.70;1.98;;;;;;;-145.87;100.00;54973.53;2089822;28;20049;-56
2023/10/29 02:41:33;;;;;;;4.22;2.20;;;;;;;-145.87;100.00;54973.53;2089774;28;20049;-58
2023/10/29 02:42:35;;;;;;;4.97;2.03;;;;;;;-145.87;100.00;54973.53;2090305;28;20052;-58
2023/10/29 02:43:40;;;;;;;7.45;2.28;;;;;;;-145.87;100.00;54973.53;2090284;28;20362;-58
2023/10/29 02:44:41;;;;;;;3.35;1.58;;;;;;;-145.87;100.00;54973.53;2090098;28;20045;-57
2023/10/29 02:45:42;;;;;;;4.45;2.00;;;;;;;-145.87;100.00;54973.53;2089483;28;20057;-58
2023/10/29 02:46:43;;;;;;;6.88;2.20;;;;;;;-145.87;100.00;54973.53;2089659;28;20066;-58
2023/10/29 02:47:46;;;;;;;6.97;2.60;;;;;;;-145.87;100.00;54973.53;2089612;28;20424;-58
2023/10/29 02:48:47;;;;;;;4.78;2.13;;;;;;;-145.87;100.00;54973.53;2089936;28;20041;-59
2023/10/29 02:49:48;;;;;;;7.45;2.13;;;;;;;-145.87;100.00;54973.53;2089750;28;20509;-58
2023/10/29 02:50:49;;;;;;;5.93;2.63;;;;;;;-145.87;100.00;54973.53;2089176;28;20049;-58
2023/10/29 02:51:51;;;;;;;4.15;2.03;;;;;;;-145.87;100.00;54973.53;2089780;28;20057;-58
2023/10/29 02:52:52;;;;;;;5.32;2.15;;;;;;;-145.87;100.00;54973.53;2089330;28;20432;-59
2023/10/29 02:53:53;;;;;;;6.10;2.25;;;;;;;-145.87;100.00;54973.53;2089374;28;20056;-57
2023/10/29 02:54:56;;;;;;;4.68;2.10;;;;;;;-145.87;100.00;54973.53;2089585;28;20041;-57
2023/10/29 02:55:59;;;;;;;7.30;1.95;;;;;;;-145.87;100.00;54973.53;2089298;28;20053;-59
2023/10/29 02:57:00;;;;;;;5.07;1.88;;;;;;;-145.87;100.00;54973.53;2089486;28;20483;-58
2023/10/29 02:58:02;;;;;;;5.20;2.25;;;;;;;-145.87;100.00;54973.53;2089731;28;20057;-58
2023/10/29 02:59:03;;;;;;;4.50;2.03;;;;;;;-145.87;100.00;54973.53;2090499;28;20059;-58
2023/10/29 03:00:06;;;;;;;5.18;2.40;;;;;;;-145.87;100.00;54973.53;2090962;28;20120;-58
2023/10/29 03:01:08;;;;;;;3.67;1.73;;;;;;;-145.87;100.00;54973.53;2091454;28;20405;-58
2023/10/29 03:02:09;;;;;;;5.28;1.90;;;;;;;-145.87;100.00;54973.53;2091059;28;20049;-58
2023/10/29 03:03:10;;;;;;;3.42;1.80;;;;;;;-145.87;100.00;54973.53;2082859;28;20061;-58
2023/10/29 03:04:12;;;;;;;4.50;1.88;;;;;;;-145.87;100.00;54973.53;2091091;28;20063;-58
2023/10/29 03:05:13;;;;;;;5.30;1.70;;;;;;;-145.87;100.00;54973.53;2091660;28;20064;-58
2023/10/29 03:06:14;;;;;;;4.10;1.42;;;;;;;-145.87;100.00;54973.53;2091680;28;20405;-58
2023/10/29 03:07:15;;;;;;;5.65;1.70;;;;;;;-145.87;100.00;54973.53;2091393;28;20061;-58
2023/10/29 03:08:16;;;;;;;3.17;1.63;;;;;;;-145.87;100.00;54973.53;2090609;28;20101;-58
2023/10/29 03:09:18;;;;;;;3.40;1.80;;;;;;;-145.87;100.00;54973.53;2091015;28;20045;-58
2023/10/29 03:10:19;;;;;;;3.45;1.70;;;;;;;-145.87;100.00;54973.53;2091731;28;20583;-58
2023/10/29 03:11:20;;;;;;;4.20;1.58;;;;;;;-145.87;100.00;54973.53;2091719;28;20060;-58
2023/10/29 03:12:21;;;;;;;4.38;1.23;;;;;;;-145.87;100.00;54973.53;2091556;28;20496;-58
2023/10/29 03:13:22;;;;;;;4.97;1.65;;;;;;;-145.87;100.00;54973.53;2090821;28;20064;-58
2023/10/29 03:14:23;;;;;;;4.30;1.67;;;;;;;-145.87;100.00;54973.53;2083129;28;20061;-58
2023/10/29 03:15:25;;;;;;;3.63;1.83;;;;;;;-145.87;100.00;54973.53;2091086;28;20053;-58
2023/10/29 03:16:27;;;;;;;4.93;1.70;;;;;;;-145.87;100.00;54973.53;2091638;28;20397;-58
2023/10/29 03:17:28;;;;;;;3.75;1.90;;;;;;;-145.87;100.00;54973.53;2091540;28;20052;-59
2023/10/29 03:18:29;;;;;;;3.63;1.50;;;;;;;-145.87;100.00;54973.53;2090650;28;20060;-58
2023/10/29 03:19:30;;;;;;;2.85;1.35;;;;;;;-145.87;100.00;54973.53;2082756;28;20060;-58
2023/10/29 03:20:31;;;;;;;4.97;1.73;;;;;;;-145.87;100.00;54973.53;2091131;28;20053;-58
2023/10/29 03:21:32;;;;;;;3.45;1.80;;;;;;;-145.87;100.00;54973.53;2090241;28;20041;-58
2023/10/29 03:22:34;;;;;;;5.40;2.03;;;;;;;-145.87;100.00;54973.53;2091104;28;20053;-58
2023/10/29 03:23:35;;;;;;;4.63;1.90;;;;;;;-145.87;100.00;54973.53;2091790;28;20041;-58
2023/10/29 03:24:37;;;;;;;3.47;1.73;;;;;;;-145.87;100.00;54973.53;2091651;28;20045;-57
2023/10/29 03:25:38;;;;;;;2.83;1.73;;;;;;;-145.87;100.00;54973.53;2091600;28;20362;-57
2023/10/29 03:26:39;;;;;;;7.13;2.17;;;;;;;-145.87;100.00;54973.53;2090887;28;20040;-57
2023/10/29 03:27:40;;;;;;;5.07;2.20;;;;;;;-145.87;100.00;54973.53;2091014;28;20444;-57
2023/10/29 03:28:42;;;;;;;5.20;2.10;;;;;;;-145.87;100.00;54973.53;2091546;28;20056;-57
2023/10/29 03:29:43;;;;;;;3.60;2.05;;;;;;;-145.87;100.00;54973.53;2091271;28;20056;-57
2023/10/29 03:30:44;;;;;;;5.82;2.60;;;;;;;-145.87;100.00;54973.53;2091615;28;20405;-57
2023/10/29 03:31:46;;;;;;;7.70;2.30;;;;;;;-145.87;100.00;54973.53;2091118;28;20045;-58
2023/10/29 03:32:47;;;;;;;7.95;2.92;;;;;;;-145.87;100.00;54973.53;2091622;28;20056;-58
2023/10/29 03:33:48;;;;;;;7.18;2.63;;;;;;;-145.87;100.00;54973.53;2091589;28;20515;-57
2023/10/29 03:34:49;;;;;;;6.05;2.83;;;;;;;-145.87;100.00;54973.53;2091094;28;20045;-57
2023/10/29 03:35:50;;;;;;;6.10;2.90;;;;;;;-145.87;100.00;54973.53;2090866;28;20051;-57
2023/10/29 03:36:51;;;;;;;6.97;2.83;;;;;;;-145.87;100.00;54973.53;2091182;28;20061;-57
2023/10/29 03:37:52;;;;;;;5.45;2.58;;;;;;;-145.87;100.00;54973.53;2091252;28;20037;-57
2023/10/29 03:38:53;;;;;;;6.70;2.80;;;;;;;-145.87;100.00;54973.53;2091418;28;20048;-57
2023/10/29 03:39:54;;;;;;;6.57;2.40;;;;;;;-145.87;100.00;54973.53;2091620;28;20049;-57
2023/10/29 03:40:55;;;;;;;5.50;2.72;;;;;;;-145.87;100.00;54973.53;2090766;28;20048;-57
2023/10/29 03:41:57;;;;;;;5.80;2.53;;;;;;;-145.87;100.00;54973.53;2090811;28;20041;-57
2023/10/29 03:42:58;;;;;;;4.32;2.50;;;;;;;-145.87;100.00;54973.53;2092405;28;20057;-57
2023/10/29 03:43:59;;;;;;;6.53;3.10;;;;;;;-145.87;100.00;54973.53;2091445;28;20385;-57
2023/10/29 03:45:00;;;;;;;6.90;2.70;;;;;;;-145.87;100.00;54973.53;2091361;28;20045;-57
2023/10/29 03:46:01;;;;;;;5.25;2.45;;;;;;;-145.87;100.00;54973.53;2091193;28;20059;-57
2023/10/29 03:47:02;;;;;;;6.90;2.63;;;;;;;-145.87;100.00;54973.53;2091367;28;20060;-57
2023/10/29 03:48:03;;;;;;;5.38;2.80;;;;;;;-145.87;100.00;54973.53;2091326;28;20049;-57
2023/10/29 03:49:05;;;;;;;6.65;2.38;;;;;;;-145.87;100.00;54973.53;2091396;28;20059;-59
2023/10/29 03:50:06;;;;;;;5.63;2.50;;;;;;;-145.87;100.00;54973.53;2092055;28;20057;-58
2023/10/29 03:51:07;;;;;;;3.95;1.60;;;;;;;-145.87;100.00;54973.53;2091615;28;20056;-59
2023/10/29 03:52:09;;;;;;;6.75;2.83;;;;;;;-145.87;100.00;54973.53;2092155;28;20049;-57
2023/10/29 03:53:10;;;;;;;6.70;2.97;;;;;;;-145.87;100.00;54973.53;2091664;28;20064;-57
2023/10/29 03:54:11;;;;;;;3.70;2.13;;;;;;;-145.87;100.00;54973.53;2091525;28;20065;-56
2023/10/29 03:55:12;;;;;;;3.15;1.65;;;;;;;-145.87;100.00;54973.53;2092049;28;20061;-62
2023/10/29 03:56:15;;;;;;;5.75;2.60;;;;;;;-145.87;100.00;54973.53;2091234;28;20045;-57
2023/10/29 03:57:16;;;;;;;5.72;2.55;;;;;;;-145.87;100.00;54973.53;2091426;28;20052;-57
2023/10/29 03:58:17;;;;;;;5.85;1.98;;;;;;;-145.87;100.00;54973.53;2090932;28;20049;-57
2023/10/29 03:59:18;;;;;;;5.18;2.30;;;;;;;-145.87;100.00;54973.53;2090427;28;20049;-57
2023/10/29 04:00:19;;;;;;;5.85;2.05;;;;;;;-145.87;100.00;54973.53;2090616;28;20049;-57
2023/10/29 04:01:20;;;;;;;3.58;1.90;;;;;;;-145.87;100.00;54973.53;2090927;28;20056;-61
2023/10/29 04:02:21;;;;;;;5.80;2.08;;;;;;;-145.87;100.00;54973.53;2091186;28;20064;-57
2023/10/29 04:03:23;;;;;;;6.35;2.50;;;;;;;-145.87;100.00;54973.53;2091067;28;20061;-57
2023/10/29 04:04:24;;;;;;;3.58;2.10;;;;;;;-145.87;100.00;54973.53;2091706;28;20591;-57
2023/10/29 04:05:25;;;;;;;5.93;2.63;;;;;;;-145.87;100.00;54973.53;2090940;28;20044;-58
2023/10/29 04:06:27;;;;;;;4.45;2.00;;;;;;;-145.87;100.00;54973.53;2090759;28;20072;-57
2023/10/29 04:07:29;;;;;;;4.25;2.13;;;;;;;-145.87;100.00;54973.53;2091816;28;20056;-57
2023/10/29 04:08:30;;;;;;;4.18;2.15;;;;;;;-145.87;100.00;54973.53;2091701;28;20036;-57
2023/10/29 04:09:31;;;;;;;5.65;1.77;;;;;;;-145.87;100.00;54973.53;2091585;28;20528;-60
2023/10/29 04:10:32;;;;;;;3.67;1.90;;;;;;;-145.87;100.00;54973.53;2090875;28;20056;-57
2023/10/29 04:11:33;;;;;;;6.35;2.10;;;;;;;-145.87;100.00;54973.53;2091104;28;20049;-61
2023/10/29 04:12:34;;;;;;;5.90;2.30;;;;;;;-145.87;100.00;54973.53;2091232;28;20068;-57
2023/10/29 04:13:36;;;;;;;6.90;2.53;;;;;;;-145.87;100.00;54973.53;2091229;28;20049;-57
2023/10/29 04:14:39;;;;;;;4.05;2.42;;;;;;;-145.87;100.00;54973.53;2091029;28;20048;-57
2023/10/29 04:15:40;;;;;;;4.57;2.33;;;;;;;-145.87;100.00;54973.53;2091240;28;20481;-57
2023/10/29 04:16:41;;;;;;;4.60;2.25;;;;;;;-145.87;100.00;54973.53;2091180;28;20043;-57
2023/10/29 04:17:43;;;;;;;5.53;2.55;;;;;;;-145.87;100.00;54973.53;2091262;28;20043;-57
2023/10/29 04:18:44;;;;;;;5.82;2.30;;;;;;;-145.87;100.00;54973.53;2091116;28;20041;-57
2023/10/29 04:19:45;;;;;;;4.88;1.80;;;;;;;-145.87;100.00;54973.53;2091139;28;20591;-57
2023/10/29 04:20:46;;;;;;;5.82;1.92;;;;;;;-145.87;100.00;54973.53;2091160;28;20049;-57
2023/10/29 04:21:47;;;;;;;4.53;1.67;;;;;;;-145.87;100.00;54973.53;2090364;28;20052;-57
2023/10/29 04:22:48;;;;;;;2.72;1.70;;;;;;;-145.87;100.00;54973.53;2090597;28;20041;-57
2023/10/29 04:23:50;;;;;;;4.80;1.92;;;;;;;-145.87;100.00;54973.53;2091020;28;20041;-57
2023/10/29 04:24:51;;;;;;;4.68;1.77;;;;;;;-145.87;100.00;54973.53;2091070;28;20040;-57
2023/10/29 04:25:52;;;;;;;6.60;2.00;;;;;;;-145.87;100.00;54973.53;2091072;28;20049;-57
2023/10/29 04:26:53;;;;;;;5.50;2.22;;;;;;;-145.87;100.00;54973.53;2090696;28;20059;-57
2023/10/29 04:27:54;;;;;;;5.65;2.35;;;;;;;-145.87;100.00;54973.53;2091144;28;20484;-57
2023/10/29 04:28:55;;;;;;;4.15;1.77;;;;;;;-145.87;100.00;54973.53;2090973;28;20047;-57
2023/10/29 04:29:56;;;;;;;4.45;1.70;;;;;;;-145.87;100.00;54973.53;2090968;28;20049;-57
2023/10/29 04:30:58;;;;;;;3.92;1.90;;;;;;;-145.87;100.00;54973.53;2091453;28;20041;-56
2023/10/29 04:31:59;;;;;;;3.45;1.83;;;;;;;-145.87;100.00;54973.53;2091336;28;20052;-59
2023/10/29 04:33:00;;;;;;;7.90;1.88;;;;;;;-145.87;100.00;54973.53;2091339;28;20049;-57
2023/10/29 04:34:01;;;;;;;3.25;1.60;;;;;;;-145.87;100.00;54973.53;2091029;28;20053;-58
2023/10/29 04:35:03;;;;;;;4.72;1.80;;;;;;;-145.87;100.00;54973.53;2091372;28;20397;-58
2023/10/29 04:36:04;;;;;;;4.95;2.10;;;;;;;-145.87;100.00;54973.53;2091164;28;20060;-58
2023/10/29 04:37:06;;;;;;;10.45;1.85;;;;;;;-145.87;100.00;54973.53;2091432;28;20053;-56
2023/10/29 04:38:07;;;;;;;5.38;1.98;;;;;;;-145.87;100.00;54973.53;2091082;28;20051;-58
2023/10/29 04:39:08;;;;;;;4.03;1.80;;;;;;;-145.87;100.00;54973.53;2090930;28;20049;-56